Observation data for Northwest San Angelo on 02/13/2018      Previous  Date  Next       Current Mesonet Observations  Soil Data  Daily Summary Page  Observations in Plain Language
KASU 130600Z 09008KT 03/M07 A3028 RMK A01 T00321065  RH  049%=      5-min Rain = 0
KASU 130605Z 09007KT 03/M07 A3028 RMK A01 T00311065  RH  050%=      5-min Rain = 0
KASU 130610Z 09008KT 03/M06 A3027 RMK A01 T00311064  RH  050%=      5-min Rain = 0
KASU 130615Z 09008KT 03/M06 A3027 RMK A01 T00311063  RH  051%=      5-min Rain = 0
KASU 130620Z 09008KT 03/M06 A3027 RMK A01 T00321061  RH  051%=      5-min Rain = 0
KASU 130625Z 09008KT 03/M06 A3027 RMK A01 T00321061  RH  051%=      5-min Rain = 0
KASU 130630Z 09008KT 03/M06 A3027 RMK A01 T00331060  RH  051%=      5-min Rain = 0
KASU 130635Z 08008KT 04/M06 A3026 RMK A01 T00351058  RH  051%=      5-min Rain = 0
KASU 130640Z 08009KT 04/M06 A3026 RMK A01 T00381057  RH  051%=      5-min Rain = 0
KASU 130645Z 08009KT 04/M06 A3026 RMK A01 T00421055  RH  050%=      5-min Rain = 0
KASU 130650Z 09009KT 04/M05 A3026 RMK A01 T00441053  RH  050%=      5-min Rain = 0
KASU 130655Z 09009KT 05/M05 A3026 RMK A01 T00471052  RH  049%=      5-min Rain = 0
KASU 130700Z 09011KT 05/M05 A3026 RMK A01 T00511050  RH  049%=      5-min Rain = 0
KASU 130705Z 10009KT 05/M05 A3026 RMK A01 T00531049  RH  048%=      5-min Rain = 0
KASU 130710Z 10009KT 06/M05 A3026 RMK A01 T00551048  RH  048%=      5-min Rain = 0
KASU 130715Z 10009KT 06/M05 A3026 RMK A01 T00571047  RH  048%=      5-min Rain = 0
KASU 130720Z 09009KT 06/M05 A3026 RMK A01 T00591046  RH  047%=      5-min Rain = 0
KASU 130725Z 10008KT 06/M04 A3026 RMK A01 T00611044  RH  047%=      5-min Rain = 0
KASU 130730Z 09008KT 06/M04 A3026 RMK A01 T00641042  RH  047%=      5-min Rain = 0
KASU 130735Z 10008KT 07/M04 A3026 RMK A01 T00661041  RH  047%=      5-min Rain = 0
KASU 130740Z 10009KT 07/M04 A3026 RMK A01 T00671040  RH  047%=      5-min Rain = 0
KASU 130745Z 10010KT 07/M04 A3026 RMK A01 T00681039  RH  047%=      5-min Rain = 0
KASU 130750Z 10010KT 07/M04 A3026 RMK A01 T00681039  RH  047%=      5-min Rain = 0
KASU 130755Z 10009KT 07/M04 A3026 RMK A01 T00671039  RH  047%=      5-min Rain = 0
KASU 130800Z 09010KT 07/M04 A3026 RMK A01 T00671038  RH  048%=      5-min Rain = 0
KASU 130805Z 09010KT 07/M04 A3026 RMK A01 T00681037  RH  048%=      5-min Rain = 0
KASU 130810Z 09010KT 07/M04 A3026 RMK A01 T00671037  RH  048%=      5-min Rain = 0
KASU 130815Z 10010KT 07/M04 A3026 RMK A01 T00671035  RH  049%=      5-min Rain = 0
KASU 130820Z 10010KT 07/M03 A3027 RMK A01 T00671034  RH  049%=      5-min Rain = 0
KASU 130825Z 10010KT 07/M03 A3027 RMK A01 T00671034  RH  049%=      5-min Rain = 0
KASU 130830Z 10009KT 07/M03 A3027 RMK A01 T00661033  RH  050%=      5-min Rain = 0
KASU 130835Z 10010KT 07/M03 A3027 RMK A01 T00661032  RH  050%=      5-min Rain = 0
KASU 130840Z 10011KT 07/M03 A3027 RMK A01 T00661032  RH  050%=      5-min Rain = 0
KASU 130845Z 10011KT 07/M03 A3027 RMK A01 T00651031  RH  051%=      5-min Rain = 0
KASU 130850Z 10011KT 07/M03 A3027 RMK A01 T00651031  RH  051%=      5-min Rain = 0
KASU 130855Z 10012KT 07/M03 A3026 RMK A01 T00651030  RH  051%=      5-min Rain = 0
KASU 130900Z 09012KT 06/M03 A3026 RMK A01 T00641030  RH  052%=      5-min Rain = 0
KASU 130905Z 09011KT 06/M03 A3026 RMK A01 T00641029  RH  052%=      5-min Rain = 0
KASU 130910Z 09011KT 06/M03 A3025 RMK A01 T00641029  RH  052%=      5-min Rain = 0
KASU 130915Z 09012KT 06/M03 A3025 RMK A01 T00641028  RH  052%=      5-min Rain = 0
KASU 130920Z 09011KT 06/M03 A3025 RMK A01 T00641028  RH  053%=      5-min Rain = 0
KASU 130925Z 09011KT 06/M03 A3026 RMK A01 T00631028  RH  053%=      5-min Rain = 0
KASU 130930Z 09011KT 06/M03 A3026 RMK A01 T00621028  RH  053%=      5-min Rain = 0
KASU 130935Z 09010KT 06/M03 A3026 RMK A01 T00621027  RH  053%=      5-min Rain = 0
KASU 130940Z 09009KT 06/M03 A3026 RMK A01 T00621027  RH  053%=      5-min Rain = 0
KASU 130945Z 09010KT 06/M03 A3026 RMK A01 T00621027  RH  053%=      5-min Rain = 0
KASU 130950Z 09010KT 06/M03 A3025 RMK A01 T00631027  RH  053%=      5-min Rain = 0
KASU 130955Z 09009KT 06/M03 A3026 RMK A01 T00631026  RH  053%=      5-min Rain = 0
KASU 131000Z 09010KT 06/M03 A3025 RMK A01 T00631026  RH  053%=      5-min Rain = 0
KASU 131005Z 09011KT 06/M03 A3025 RMK A01 T00621026  RH  054%=      5-min Rain = 0
KASU 131010Z 09011KT 06/M03 A3025 RMK A01 T00621026  RH  054%=      5-min Rain = 0
KASU 131015Z 09011KT 06/M03 A3025 RMK A01 T00621026  RH  054%=      5-min Rain = 0
KASU 131020Z 09011KT 06/M03 A3025 RMK A01 T00621025  RH  054%=      5-min Rain = 0
KASU 131025Z 09010KT 06/M03 A3025 RMK A01 T00621025  RH  054%=      5-min Rain = 0
KASU 131030Z 09011KT 06/M03 A3025 RMK A01 T00621025  RH  054%=      5-min Rain = 0
KASU 131035Z 09010KT 06/M03 A3025 RMK A01 T00611025  RH  055%=      5-min Rain = 0
KASU 131040Z 09011KT 06/M03 A3025 RMK A01 T00611025  RH  055%=      5-min Rain = 0
KASU 131045Z 09010KT 06/M02 A3025 RMK A01 T00611024  RH  055%=      5-min Rain = 0
KASU 131050Z 09009KT 06/M02 A3026 RMK A01 T00611024  RH  055%=      5-min Rain = 0
KASU 131055Z 09009KT 06/M02 A3026 RMK A01 T00611024  RH  055%=      5-min Rain = 0
KASU 131100Z 09009KT 06/M02 A3026 RMK A01 T00611024  RH  055%=      5-min Rain = 0
KASU 131105Z 10008KT 06/M02 A3027 RMK A01 T00611024  RH  055%=      5-min Rain = 0
KASU 131110Z 09008KT 06/M02 A3027 RMK A01 T00611024  RH  055%=      5-min Rain = 0
KASU 131115Z 09008KT 06/M02 A3027 RMK A01 T00611023  RH  055%=      5-min Rain = 0
KASU 131120Z 09007KT 06/M02 A3028 RMK A01 T00611023  RH  055%=      5-min Rain = 0
KASU 131125Z 10006KT 06/M02 A3028 RMK A01 T00621023  RH  055%=      5-min Rain = 0
KASU 131130Z 09007KT 06/M02 A3028 RMK A01 T00621023  RH  055%=      5-min Rain = 0
KASU 131135Z 10007KT 06/M02 A3028 RMK A01 T00621022  RH  055%=      5-min Rain = 0
KASU 131140Z 09008KT 06/M02 A3028 RMK A01 T00611022  RH  056%=      5-min Rain = 0
KASU 131145Z 09007KT 06/M02 A3029 RMK A01 T00611022  RH  056%=      5-min Rain = 0
KASU 131150Z 09006KT 06/M02 A3029 RMK A01 T00611022  RH  056%=      5-min Rain = 0
KASU 131155Z 09006KT 06/M02 A3029 RMK A01 T00611022  RH  056%=      5-min Rain = 0
KASU 131200Z 09005KT 06/M02 A3029 RMK A01 T00621022  RH  056%=      5-min Rain = 0
KASU 131205Z 08005KT 06/M02 A3029 RMK A01 T00621021  RH  056%=      5-min Rain = 0
KASU 131210Z 08005KT 06/M02 A3029 RMK A01 T00631021  RH  056%=      5-min Rain = 0
KASU 131215Z 08005KT 06/M02 A3029 RMK A01 T00631021  RH  055%=      5-min Rain = 0
KASU 131220Z 08006KT 06/M02 A303 RMK A01 T00641021  RH  055%=      5-min Rain = 0
KASU 131225Z 08005KT 06/M02 A303 RMK A01 T00641020  RH  055%=      5-min Rain = 0
KASU 131230Z 08006KT 06/M02 A303 RMK A01 T00641020  RH  055%=      5-min Rain = 0
KASU 131235Z 08006KT 07/M02 A303 RMK A01 T00651020  RH  055%=      5-min Rain = 0
KASU 131240Z 08005KT 07/M02 A303 RMK A01 T00651019  RH  055%=      5-min Rain = 0
KASU 131245Z 08005KT 07/M02 A303 RMK A01 T00661019  RH  055%=      5-min Rain = 0
KASU 131250Z 07006KT 07/M02 A3031 RMK A01 T00661019  RH  055%=      5-min Rain = 0
KASU 131255Z 09005KT 07/M02 A3031 RMK A01 T00671018  RH  055%=      5-min Rain = 0
KASU 131300Z 08006KT 07/M02 A3031 RMK A01 T00671018  RH  055%=      5-min Rain = 0
KASU 131305Z 08005KT 07/M02 A3031 RMK A01 T00681018  RH  055%=      5-min Rain = 0
KASU 131310Z 08005KT 07/M02 A3031 RMK A01 T00691017  RH  055%=      5-min Rain = 0
KASU 131315Z 08006KT 07/M02 A3031 RMK A01 T00691017  RH  055%=      5-min Rain = 0
KASU 131320Z 08006KT 07/M02 A3031 RMK A01 T00701017  RH  055%=      5-min Rain = 0
KASU 131325Z 09007KT 07/M02 A3031 RMK A01 T00701016  RH  055%=      5-min Rain = 0
KASU 131330Z 09007KT 07/M02 A3031 RMK A01 T00711015  RH  055%=      5-min Rain = 0
KASU 131335Z 09007KT 07/M01 A3031 RMK A01 T00721014  RH  055%=      5-min Rain = 0
KASU 131340Z 09008KT 07/M01 A3031 RMK A01 T00721014  RH  055%=      5-min Rain = 0
KASU 131345Z 08008KT 07/M01 A3032 RMK A01 T00721014  RH  055%=      5-min Rain = 0
KASU 131350Z 08007KT 07/M01 A3032 RMK A01 T00711014  RH  055%=      5-min Rain = 0
KASU 131355Z 08007KT 07/M01 A3032 RMK A01 T00711013  RH  055%=      5-min Rain = 0
KASU 131400Z 08007KT 07/M01 A3032 RMK A01 T00711013  RH  056%=      5-min Rain = 0
KASU 131405Z 08007KT 07/M01 A3032 RMK A01 T00711013  RH  056%=      5-min Rain = 0
KASU 131410Z 08007KT 07/M01 A3032 RMK A01 T00721013  RH  056%=      5-min Rain = 0
KASU 131415Z 08007KT 07/M01 A3032 RMK A01 T00721012  RH  056%=      5-min Rain = 0
KASU 131420Z 08008KT 07/M01 A3033 RMK A01 T00731012  RH  056%=      5-min Rain = 0
KASU 131425Z 08008KT 07/M01 A3033 RMK A01 T00731011  RH  056%=      5-min Rain = 0
KASU 131430Z 08008KT 07/M01 A3033 RMK A01 T00741010  RH  056%=      5-min Rain = 0
KASU 131435Z 08008KT 08/M01 A3034 RMK A01 T00751010  RH  056%=      5-min Rain = 0
KASU 131440Z 08008KT 08/M01 A3034 RMK A01 T00751009  RH  056%=      5-min Rain = 0
KASU 131445Z 08008KT 08/M01 A3034 RMK A01 T00751010  RH  055%=      5-min Rain = 0
KASU 131450Z 07008KT 07/M01 A3034 RMK A01 T00741010  RH  056%=      5-min Rain = 0
KASU 131455Z 07007KT 08/M01 A3034 RMK A01 T00751009  RH  056%=      5-min Rain = 0
KASU 131500Z 07007KT 08/M01 A3034 RMK A01 T00751009  RH  056%=      5-min Rain = 0
KASU 131505Z 07007KT 08/M01 A3035 RMK A01 T00761008  RH  056%=      5-min Rain = 0
KASU 131510Z 07007KT 08/M01 A3035 RMK A01 T00771008  RH  056%=      5-min Rain = 0
KASU 131515Z 07006KT 08/M01 A3035 RMK A01 T00781007  RH  055%=      5-min Rain = 0
KASU 131520Z 08006KT 08/M01 A3035 RMK A01 T00791007  RH  055%=      5-min Rain = 0
KASU 131525Z 07006KT 08/M01 A3035 RMK A01 T00801006  RH  055%=      5-min Rain = 0
KASU 131530Z 08007KT 08/M01 A3035 RMK A01 T00811006  RH  055%=      5-min Rain = 0
KASU 131535Z 09007KT 08/M01 A3035 RMK A01 T00821006  RH  055%=      5-min Rain = 0
KASU 131540Z 09007KT 08/M01 A3035 RMK A01 T00831005  RH  055%=      5-min Rain = 0
KASU 131545Z 09007KT 08/M00 A3036 RMK A01 T00841004  RH  054%=      5-min Rain = 0
KASU 131550Z 09007KT 08/M00 A3036 RMK A01 T00841004  RH  054%=      5-min Rain = 0
KASU 131555Z 09007KT 08/M00 A3036 RMK A01 T00841003  RH  055%=      5-min Rain = 0
KASU 131600Z 09008KT 09/M00 A3036 RMK A01 T00861003  RH  054%=      5-min Rain = 0
KASU 131605Z 09008KT 09/M00 A3036 RMK A01 T00851003  RH  055%=      5-min Rain = 0
KASU 131610Z 09007KT 09/M00 A3036 RMK A01 T00881002  RH  054%=      5-min Rain = 0
KASU 131615Z 10008KT 09/M00 A3036 RMK A01 T00871003  RH  054%=      5-min Rain = 0
KASU 131620Z 09008KT 09/M00 A3037 RMK A01 T00861002  RH  054%=      5-min Rain = 0
KASU 131625Z 09008KT 09/M00 A3037 RMK A01 T00881001  RH  054%=      5-min Rain = 0
KASU 131630Z 08008KT 09/M00 A3037 RMK A01 T00901001  RH  053%=      5-min Rain = 0
KASU 131635Z 09008KT 09/M00 A3037 RMK A01 T00901001  RH  053%=      5-min Rain = 0
KASU 131640Z 09007KT 09/00 A3037 RMK A01 T009100-0  RH  053%=      5-min Rain = 0
KASU 131645Z 08007KT 09/00 A3037 RMK A01 T00930001  RH  053%=      5-min Rain = 0
KASU 131650Z 10006KT 10/00 A3037 RMK A01 T00950001  RH  053%=      5-min Rain = 0
KASU 131655Z 09007KT 09/00 A3038 RMK A01 T00920001  RH  053%=      5-min Rain = 0
KASU 131700Z 09006KT 10/00 A3038 RMK A01 T00960003  RH  053%=      5-min Rain = 0
KASU 131705Z 10006KT 10/00 A3038 RMK A01 T00980003  RH  052%=      5-min Rain = 0
KASU 131710Z 10006KT 10/00 A3038 RMK A01 T00990004  RH  052%=      5-min Rain = 0
KASU 131715Z 10006KT 10/00 A3038 RMK A01 T00990004  RH  052%=      5-min Rain = 0
KASU 131720Z 10006KT 10/01 A3038 RMK A01 T00990005  RH  053%=      5-min Rain = 0
KASU 131725Z 09006KT 10/01 A3038 RMK A01 T01000006  RH  053%=      5-min Rain = 0
KASU 131730Z 11006KT 10/01 A3037 RMK A01 T01040008  RH  052%=      5-min Rain = 0
KASU 131735Z 10005KT 11/01 A3037 RMK A01 T01060008  RH  051%=      5-min Rain = 0
KASU 131740Z 10006KT 11/01 A3037 RMK A01 T01060008  RH  051%=      5-min Rain = 0
KASU 131745Z 11006KT 11/01 A3037 RMK A01 T01060009  RH  052%=      5-min Rain = 0
KASU 131750Z 10006KT 11/01 A3037 RMK A01 T01140011  RH  050%=      5-min Rain = 0
KASU 131755Z 10006KT 11/01 A3036 RMK A01 T01130010  RH  050%=      5-min Rain = 0
KASU 131800Z 10005KT 12/01 A3036 RMK A01 T01160013  RH  050%=      5-min Rain = 0
KASU 131805Z 12005KT 12/01 A3036 RMK A01 T01180013  RH  049%=      5-min Rain = 0
KASU 131810Z 11006KT 12/02 A3036 RMK A01 T01210015  RH  049%=      5-min Rain = 0
KASU 131815Z 13007KT 12/02 A3036 RMK A01 T01240019  RH  049%=      5-min Rain = 0
KASU 131820Z 12005KT 13/02 A3035 RMK A01 T01290022  RH  049%=      5-min Rain = 0
KASU 131825Z 14006KT 13/03 A3035 RMK A01 T01330027  RH  049%=      5-min Rain = 0
KASU 131830Z 14006KT 13/03 A3035 RMK A01 T01340027  RH  049%=      5-min Rain = 0
KASU 131835Z 13008KT 13/03 A3035 RMK A01 T01340030  RH  050%=      5-min Rain = 0
KASU 131840Z 13007KT 14/03 A3034 RMK A01 T01390032  RH  049%=      5-min Rain = 0
KASU 131845Z 14009KT 15/04 A3033 RMK A01 T01470040  RH  049%=      5-min Rain = 0
KASU 131850Z 15009KT 15/05 A3032 RMK A01 T01450046  RH  052%=      5-min Rain = 0
KASU 131855Z 14011KT 15/05 A3032 RMK A01 T01510050  RH  052%=      5-min Rain = 0
KASU 131900Z 14011G16KT 16/05 A3031 RMK A01 T01560054  RH  051%=      5-min Rain = 0
KASU 131905Z 13011KT 15/05 A3031 RMK A01 T01520053  RH  052%=      5-min Rain = 0
KASU 131910Z 15011KT 15/06 A3031 RMK A01 T01530055  RH  053%=      5-min Rain = 0
KASU 131915Z 15010KT 15/06 A3031 RMK A01 T01500055  RH  054%=      5-min Rain = 0
KASU 131920Z 15011KT 15/06 A303 RMK A01 T01520057  RH  054%=      5-min Rain = 0
KASU 131925Z 16010KT 15/06 A303 RMK A01 T01540059  RH  054%=      5-min Rain = 0
KASU 131930Z 16011G16KT 16/06 A303 RMK A01 T01550061  RH  054%=      5-min Rain = 0
KASU 131935Z 16010KT 15/06 A303 RMK A01 T01540062  RH  055%=      5-min Rain = 0
KASU 131940Z 14009KT 16/06 A3029 RMK A01 T01590064  RH  054%=      5-min Rain = 0
KASU 131945Z 15009KT 16/07 A3029 RMK A01 T01580065  RH  054%=      5-min Rain = 0
KASU 131950Z 16010KT 16/07 A3029 RMK A01 T01600069  RH  056%=      5-min Rain = 0
KASU 131955Z 16010KT 16/07 A3029 RMK A01 T01620073  RH  056%=      5-min Rain = 0
KASU 132000Z 17012KT 17/08 A3029 RMK A01 T01650076  RH  056%=      5-min Rain = 0
KASU 132005Z 17013G19KT 17/08 A3029 RMK A01 T01660077  RH  057%=      5-min Rain = 0
KASU 132010Z 16012G17KT 17/08 A3029 RMK A01 T01660077  RH  056%=      5-min Rain = 0
KASU 132015Z 16012KT 17/08 A3029 RMK A01 T01650078  RH  057%=      5-min Rain = 0
KASU 132020Z 18011KT 17/08 A3029 RMK A01 T01670077  RH  056%=      5-min Rain = 0
KASU 132025Z 18014KT 17/08 A3029 RMK A01 T01670079  RH  057%=      5-min Rain = 0
KASU 132030Z 18013KT 17/08 A3028 RMK A01 T01670079  RH  057%=      5-min Rain = 0
KASU 132035Z 18012G17KT 17/08 A3028 RMK A01 T01680079  RH  057%=      5-min Rain = 0
KASU 132040Z 16011G16KT 17/08 A3028 RMK A01 T01680080  RH  057%=      5-min Rain = 0
KASU 132045Z 17011KT 17/08 A3028 RMK A01 T01680079  RH  056%=      5-min Rain = 0
KASU 132050Z 17013KT 17/08 A3027 RMK A01 T01680080  RH  057%=      5-min Rain = 0
KASU 132055Z 16012KT 17/08 A3027 RMK A01 T01710081  RH  056%=      5-min Rain = 0
KASU 132100Z 17012KT 17/08 A3027 RMK A01 T01740082  RH  055%=      5-min Rain = 0
KASU 132105Z 17011KT 17/08 A3026 RMK A01 T01740082  RH  055%=      5-min Rain = 0
KASU 132110Z 15012G17KT 18/08 A3026 RMK A01 T01750082  RH  055%=      5-min Rain = 0
KASU 132115Z 15013KT 17/08 A3026 RMK A01 T01730081  RH  056%=      5-min Rain = 0
KASU 132120Z 16011G16KT 17/08 A3026 RMK A01 T01720082  RH  056%=      5-min Rain = 0
KASU 132125Z 15013KT 17/08 A3026 RMK A01 T01710083  RH  057%=      5-min Rain = 0
KASU 132130Z 15011G16KT 17/08 A3026 RMK A01 T01710084  RH  057%=      5-min Rain = 0
KASU 132135Z 15012KT 17/09 A3025 RMK A01 T01730085  RH  057%=      5-min Rain = 0
KASU 132140Z 15012KT 18/09 A3025 RMK A01 T01770086  RH  056%=      5-min Rain = 0
KASU 132145Z 16010G15KT 18/09 A3025 RMK A01 T01780087  RH  056%=      5-min Rain = 0
KASU 132150Z 16013G18KT 17/09 A3025 RMK A01 T01740087  RH  058%=      5-min Rain = 0
KASU 132155Z 15012G17KT 18/09 A3025 RMK A01 T01760089  RH  057%=      5-min Rain = 0
KASU 132200Z 16011G16KT 18/09 A3026 RMK A01 T01820090  RH  056%=      5-min Rain = 0
KASU 132205Z 15013KT 19/09 A3026 RMK A01 T01850091  RH  055%=      5-min Rain = 0
KASU 132210Z 16012KT 18/09 A3025 RMK A01 T01840091  RH  056%=      5-min Rain = 0
KASU 132215Z 16013KT 18/09 A3026 RMK A01 T01790091  RH  057%=      5-min Rain = 0
KASU 132220Z 17012KT 18/09 A3026 RMK A01 T01760091  RH  058%=      5-min Rain = 0
KASU 132225Z 17011G17KT 18/09 A3026 RMK A01 T01760091  RH  058%=      5-min Rain = 0
KASU 132230Z 17012KT 18/09 A3026 RMK A01 T01750091  RH  059%=      5-min Rain = 0
KASU 132235Z 17013KT 18/09 A3025 RMK A01 T01760092  RH  059%=      5-min Rain = 0
KASU 132240Z 17013KT 18/09 A3025 RMK A01 T01750092  RH  059%=      5-min Rain = 0
KASU 132245Z 17013G18KT 18/09 A3025 RMK A01 T01750093  RH  060%=      5-min Rain = 0
KASU 132250Z 18013KT 17/09 A3025 RMK A01 T01740092  RH  060%=      5-min Rain = 0
KASU 132255Z 17012KT 17/09 A3025 RMK A01 T01730093  RH  060%=      5-min Rain = 0
KASU 132300Z 17011KT 17/09 A3025 RMK A01 T01720093  RH  061%=      5-min Rain = 0
KASU 132305Z 17010G15KT 17/09 A3025 RMK A01 T01700093  RH  061%=      5-min Rain = 0
KASU 132310Z 16009G17KT 17/09 A3025 RMK A01 T01690094  RH  062%=      5-min Rain = 0
KASU 132315Z 17012G17KT 17/10 A3025 RMK A01 T01670095  RH  063%=      5-min Rain = 0
KASU 132320Z 17014G20KT 17/10 A3025 RMK A01 T01650096  RH  065%=      5-min Rain = 0
KASU 132325Z 17015G20KT 16/10 A3025 RMK A01 T01640097  RH  065%=      5-min Rain = 0
KASU 132330Z 17014G20KT 16/10 A3025 RMK A01 T01640097  RH  066%=      5-min Rain = 0
KASU 132335Z 17014G19KT 16/10 A3025 RMK A01 T01640097  RH  066%=      5-min Rain = 0
KASU 132340Z 17012G17KT 16/10 A3025 RMK A01 T01640096  RH  065%=      5-min Rain = 0
KASU 132345Z 16010KT 16/10 A3025 RMK A01 T01630095  RH  065%=      5-min Rain = 0
KASU 132350Z 17010KT 16/10 A3025 RMK A01 T01620095  RH  065%=      5-min Rain = 0
KASU 132355Z 16009KT 16/10 A3025 RMK A01 T01620095  RH  066%=      5-min Rain = 0
KASU 140000Z 16009KT 16/09 A3025 RMK A01 T01610094  RH  066%=      5-min Rain = 0
KASU 140005Z 16008KT 16/09 A3026 RMK A01 T01590094  RH  066%=      5-min Rain = 0
KASU 140010Z 16007KT 16/09 A3026 RMK A01 T01570093  RH  067%=      5-min Rain = 0
KASU 140015Z 16007KT 16/09 A3026 RMK A01 T01550093  RH  067%=      5-min Rain = 0
KASU 140020Z 17008KT 15/09 A3026 RMK A01 T01540093  RH  068%=      5-min Rain = 0
KASU 140025Z 17007KT 15/09 A3026 RMK A01 T01530093  RH  068%=      5-min Rain = 0
KASU 140030Z 18008KT 15/09 A3026 RMK A01 T01510092  RH  069%=      5-min Rain = 0
KASU 140035Z 18007KT 15/09 A3026 RMK A01 T01490091  RH  069%=      5-min Rain = 0
KASU 140040Z 18007KT 15/09 A3027 RMK A01 T01470090  RH  070%=      5-min Rain = 0
KASU 140045Z 18007KT 15/09 A3026 RMK A01 T01450089  RH  071%=      5-min Rain = 0
KASU 140050Z 18007G13KT 14/09 A3026 RMK A01 T01440090  RH  071%=      5-min Rain = 0
KASU 140055Z 17007KT 14/09 A3026 RMK A01 T01440091  RH  072%=      5-min Rain = 0
KASU 140100Z 16008KT 15/09 A3026 RMK A01 T01450092  RH  072%=      5-min Rain = 0
KASU 140105Z 16008KT 15/09 A3026 RMK A01 T01460093  RH  072%=      5-min Rain = 0
KASU 140110Z 16008KT 15/09 A3026 RMK A01 T01460094  RH  072%=      5-min Rain = 0
KASU 140115Z 16007KT 15/09 A3026 RMK A01 T01450093  RH  073%=      5-min Rain = 0
KASU 140120Z 17007KT 14/09 A3026 RMK A01 T01430093  RH  073%=      5-min Rain = 0
KASU 140125Z 16008KT 14/09 A3026 RMK A01 T01430094  RH  073%=      5-min Rain = 0
KASU 140130Z 16008KT 14/09 A3026 RMK A01 T01420094  RH  074%=      5-min Rain = 0
KASU 140135Z 17009G16KT 14/09 A3025 RMK A01 T01420094  RH  074%=      5-min Rain = 0
KASU 140140Z 17010KT 14/10 A3026 RMK A01 T01430095  RH  074%=      5-min Rain = 0
KASU 140145Z 17008KT 14/10 A3026 RMK A01 T01420095  RH  074%=      5-min Rain = 0
KASU 140150Z 17008KT 14/10 A3026 RMK A01 T01420095  RH  075%=      5-min Rain = 0
KASU 140155Z 17007KT 14/10 A3026 RMK A01 T01420095  RH  075%=      5-min Rain = 0
KASU 140200Z 17006KT 14/10 A3026 RMK A01 T01410095  RH  075%=      5-min Rain = 0
KASU 140205Z 17007KT 14/10 A3027 RMK A01 T01420097  RH  075%=      5-min Rain = 0
KASU 140210Z 17007KT 14/10 A3027 RMK A01 T01430097  RH  075%=      5-min Rain = 0
KASU 140215Z 18006KT 14/10 A3027 RMK A01 T01420097  RH  075%=      5-min Rain = 0
KASU 140220Z 18005KT 14/10 A3027 RMK A01 T01420097  RH  075%=      5-min Rain = 0
KASU 140225Z 18005KT 14/10 A3027 RMK A01 T01410096  RH  076%=      5-min Rain = 0
KASU 140230Z 17005KT 14/10 A3027 RMK A01 T01400096  RH  076%=      5-min Rain = 0
KASU 140235Z 16004KT 14/10 A3028 RMK A01 T01390096  RH  077%=      5-min Rain = 0
KASU 140240Z 17003KT 14/10 A3028 RMK A01 T01380095  RH  077%=      5-min Rain = 0
KASU 140245Z 17003KT 14/09 A3028 RMK A01 T01360094  RH  077%=      5-min Rain = 0
KASU 140250Z 15004KT 13/09 A3027 RMK A01 T01340093  RH  078%=      5-min Rain = 0
KASU 140255Z 14004KT 13/09 A3027 RMK A01 T01340093  RH  078%=      5-min Rain = 0
KASU 140300Z 13004KT 13/09 A3027 RMK A01 T01340093  RH  077%=      5-min Rain = 0
KASU 140305Z 13005KT 14/09 A3027 RMK A01 T01350094  RH  077%=      5-min Rain = 0
KASU 140310Z 14005KT 14/10 A3027 RMK A01 T01360096  RH  078%=      5-min Rain = 0
KASU 140315Z 13004KT 14/09 A3027 RMK A01 T01350094  RH  077%=      5-min Rain = 0
KASU 140320Z 14003KT 14/09 A3028 RMK A01 T01350094  RH  078%=      5-min Rain = 0
KASU 140325Z 17002KT 14/09 A3028 RMK A01 T01350094  RH  078%=      5-min Rain = 0
KASU 140330Z 14003KT 14/10 A3028 RMK A01 T01360095  RH  078%=      5-min Rain = 0
KASU 140335Z 16004KT 14/10 A3028 RMK A01 T01380098  RH  078%=      5-min Rain = 0
KASU 140340Z 15004KT 14/10 A3028 RMK A01 T01400099  RH  078%=      5-min Rain = 0
KASU 140345Z 15004KT 14/10 A3028 RMK A01 T01400098  RH  077%=      5-min Rain = 0
KASU 140350Z 15004KT 14/10 A3028 RMK A01 T01400098  RH  077%=      5-min Rain = 0
KASU 140355Z 16004KT 14/10 A3028 RMK A01 T01420100  RH  077%=      5-min Rain = 0
KASU 140400Z 17003KT 14/10 A3029 RMK A01 T01430101  RH  077%=      5-min Rain = 0
KASU 140405Z 16003KT 14/10 A3029 RMK A01 T01430101  RH  077%=      5-min Rain = 0
KASU 140410Z 15003KT 14/10 A3028 RMK A01 T01430101  RH  077%=      5-min Rain = 0
KASU 140415Z 15002KT 14/10 A3028 RMK A01 T01420101  RH  077%=      5-min Rain = 0
KASU 140420Z 17003KT 14/10 A3029 RMK A01 T01430102  RH  078%=      5-min Rain = 0
KASU 140425Z 18006KT 15/11 A3029 RMK A01 T01460106  RH  078%=      5-min Rain = 0
KASU 140430Z 18006KT 15/11 A3029 RMK A01 T01460106  RH  078%=      5-min Rain = 0
KASU 140435Z 17006KT 15/11 A3028 RMK A01 T01470107  RH  078%=      5-min Rain = 0
KASU 140440Z 17006KT 15/11 A3028 RMK A01 T01470107  RH  079%=      5-min Rain = 0
KASU 140445Z 17005KT 15/11 A3028 RMK A01 T01460107  RH  079%=      5-min Rain = 0
KASU 140450Z 17004KT 15/11 A3028 RMK A01 T01460107  RH  079%=      5-min Rain = 0
KASU 140455Z 16004KT 15/11 A3028 RMK A01 T01460107  RH  079%=      5-min Rain = 0
KASU 140500Z 17003KT 15/11 A3029 RMK A01 T01450106  RH  079%=      5-min Rain = 0
KASU 140505Z 15003KT 14/11 A3029 RMK A01 T01440106  RH  079%=      5-min Rain = 0
KASU 140510Z 17005KT 15/11 A3029 RMK A01 T01450107  RH  079%=      5-min Rain = 0
KASU 140515Z 16005KT 15/11 A3028 RMK A01 T01450107  RH  079%=      5-min Rain = 0
KASU 140520Z 16006KT 15/11 A3028 RMK A01 T01450107  RH  080%=      5-min Rain = 0
KASU 140525Z 17007KT 15/11 A3028 RMK A01 T01450108  RH  080%=      5-min Rain = 0
KASU 140530Z 16007KT 14/11 A3028 RMK A01 T01440108  RH  080%=      5-min Rain = 0
KASU 140535Z 16006KT 14/11 A3028 RMK A01 T01440109  RH  081%=      5-min Rain = 0
KASU 140540Z 16007KT 14/11 A3028 RMK A01 T01440109  RH  081%=      5-min Rain = 0
KASU 140545Z 16006KT 14/11 A3028 RMK A01 T01440109  RH  081%=      5-min Rain = 0
KASU 140550Z 17008KT 14/11 A3029 RMK A01 T01440109  RH  081%=      5-min Rain = 0
KASU 140555Z 17008G13KT 15/11 A3029 RMK A01 T01450109  RH  081%=      5-min Rain = 0

Page generated in 0.0092 seconds.